createdAt,value
2022-10-18T00:05:04.233Z,6.77
2022-10-18T00:15:12.939Z,7.25
2022-10-18T00:20:17.826Z,7.18
2022-10-18T00:30:24.495Z,7.72
2022-10-18T00:35:29.280Z,7.55
2022-10-18T00:40:32.690Z,6.47
2022-10-18T00:45:35.997Z,7.10
2022-10-18T00:50:41.608Z,7.18
2022-10-18T00:55:45.681Z,6.93
2022-10-18T01:00:49.039Z,7.43
2022-10-18T01:05:54.257Z,7.30
2022-10-18T01:11:11.062Z,7.75
2022-10-18T01:16:24.185Z,7.28
2022-10-18T01:21:39.626Z,7.03
2022-10-18T01:27:10.127Z,6.85
2022-10-18T01:32:20.290Z,6.82
2022-10-18T01:37:24.234Z,7.15
2022-10-18T01:42:28.643Z,7.40
2022-10-18T01:47:34.088Z,6.47
2022-10-18T01:52:37.602Z,6.85
2022-10-18T01:57:46.751Z,7.15
2022-10-18T02:02:57.824Z,6.85
2022-10-18T02:08:19.249Z,5.80
2022-10-18T02:13:31.089Z,7.13
2022-10-18T02:19:02.595Z,6.20
2022-10-18T02:24:08.130Z,6.75
2022-10-18T02:29:13.139Z,5.93
2022-10-18T02:34:22.881Z,6.45
2022-10-18T02:39:29.684Z,7.22
2022-10-18T02:44:33.148Z,6.22
2022-10-18T02:49:38.662Z,6.55
2022-10-18T02:54:42.022Z,6.07
2022-10-18T02:59:46.063Z,6.20
2022-10-18T03:04:50.761Z,6.10
2022-10-18T03:09:54.190Z,6.25
2022-10-18T03:14:57.502Z,5.65
2022-10-18T03:20:02.977Z,6.32
2022-10-18T03:25:07.400Z,5.72
2022-10-18T03:30:13.396Z,6.30
2022-10-18T03:35:18.347Z,5.90
2022-10-18T03:45:28.908Z,6.40
2022-10-18T03:50:36.028Z,5.70
2022-10-18T03:55:39.713Z,5.95
2022-10-18T04:00:43.000Z,6.05
2022-10-18T04:05:48.290Z,6.35
2022-10-18T04:10:52.677Z,5.93
2022-10-18T04:15:56.145Z,5.78
2022-10-18T04:21:01.770Z,6.63
2022-10-18T04:26:05.621Z,7.10
2022-10-18T04:31:09.097Z,6.28
2022-10-18T04:36:13.954Z,6.63
2022-10-18T04:46:20.979Z,7.15
2022-10-18T04:51:26.646Z,7.40
2022-10-18T04:56:31.317Z,8.07
2022-10-18T05:01:34.811Z,7.97
2022-10-18T05:06:40.020Z,7.60
2022-10-18T05:11:44.021Z,8.23
2022-10-18T05:16:48.387Z,8.00
2022-10-18T05:21:53.277Z,8.77
2022-10-18T05:32:00.142Z,8.98
2022-10-18T05:37:05.266Z,8.95
2022-10-18T05:42:09.004Z,9.57
2022-10-18T05:47:13.436Z,9.20
2022-10-18T05:52:18.462Z,9.38
2022-10-18T05:57:22.165Z,8.45
2022-10-18T06:02:25.710Z,8.05
2022-10-18T06:07:31.157Z,8.65
2022-10-18T06:12:35.639Z,9.05
2022-10-18T06:17:39.430Z,9.18
2022-10-18T06:22:44.436Z,9.57
2022-10-18T06:27:47.962Z,11.23
2022-10-18T06:32:51.344Z,10.02
2022-10-18T06:37:56.067Z,13.38
2022-10-18T06:43:19.551Z,13.40
2022-10-18T06:48:25.124Z,12.55
2022-10-18T06:53:32.009Z,18.98
2022-10-18T06:58:36.613Z,14.38
2022-10-18T07:03:40.435Z,11.80
2022-10-18T07:08:45.563Z,12.63
2022-10-18T07:13:48.910Z,13.13
2022-10-18T07:18:53.191Z,13.52
2022-10-18T07:23:58.280Z,16.55
2022-10-18T07:29:06.555Z,17.35
2022-10-18T07:34:13.547Z,12.73
2022-10-18T07:39:19.034Z,16.80
2022-10-18T07:44:22.470Z,16.35
2022-10-18T07:49:26.756Z,17.70
2022-10-18T07:54:31.549Z,16.40
2022-10-18T08:04:38.400Z,15.63
2022-10-18T08:09:43.142Z,26.02
2022-10-18T08:14:47.225Z,18.88
2022-10-18T08:20:04.738Z,16.48
2022-10-18T08:25:16.195Z,15.50
2022-10-18T08:35:26.861Z,13.05
2022-10-18T08:40:33.946Z,16.73
2022-10-18T08:45:43.191Z,16.75
2022-10-18T08:50:48.246Z,18.17
2022-10-18T08:55:59.214Z,16.42
2022-10-18T09:01:16.049Z,15.35
2022-10-18T09:06:26.881Z,18.67
2022-10-18T09:11:48.646Z,20.33
2022-10-18T09:17:02.035Z,16.90
2022-10-18T09:22:11.368Z,29.33
2022-10-18T09:27:19.041Z,19.20
2022-10-18T09:32:33.735Z,14.40
2022-10-18T09:37:37.634Z,14.45
2022-10-18T09:42:49.044Z,19.80
2022-10-18T09:48:03.400Z,15.77
2022-10-18T09:53:17.201Z,15.40
2022-10-18T09:58:24.159Z,17.23
2022-10-18T10:03:27.586Z,15.85
2022-10-18T10:08:36.068Z,30.63
2022-10-18T10:13:40.973Z,24.13
2022-10-18T10:23:52.711Z,28.13
2022-10-18T10:28:57.687Z,27.73
2022-10-18T10:34:03.261Z,26.55
2022-10-18T10:39:08.711Z,17.33
2022-10-18T10:44:18.685Z,14.07
2022-10-18T10:49:41.282Z,15.55
2022-10-18T10:54:51.217Z,11.98
2022-10-18T10:59:59.777Z,11.45
2022-10-18T11:05:23.056Z,10.70
2022-10-18T11:10:32.147Z,10.13
2022-10-18T11:15:43.204Z,9.57
2022-10-18T11:20:50.424Z,9.70
2022-10-18T11:26:19.660Z,9.93
2022-10-18T11:31:32.052Z,8.82
2022-10-18T11:36:50.406Z,8.10
2022-10-18T11:42:04.896Z,8.90
2022-10-18T11:47:17.077Z,7.45
2022-10-18T11:52:29.546Z,7.45
2022-10-18T11:57:44.483Z,7.20
2022-10-18T12:08:12.622Z,7.40
2022-10-18T12:13:23.113Z,8.07
2022-10-18T12:18:29.566Z,7.63
2022-10-18T12:23:40.477Z,7.10
2022-10-18T12:28:55.648Z,5.57
2022-10-18T12:34:04.702Z,4.28
2022-10-18T12:39:13.900Z,3.80
2022-10-18T12:44:22.286Z,3.50
2022-10-18T12:49:30.886Z,2.50
2022-10-18T12:54:36.453Z,2.20
2022-10-18T12:59:43.264Z,1.98
2022-10-18T13:04:48.157Z,2.00
2022-10-18T13:10:40.260Z,2.00
2022-10-18T13:15:47.940Z,2.30
2022-10-18T13:21:04.214Z,2.00
2022-10-18T13:26:20.391Z,1.85
2022-10-18T13:31:28.420Z,3.10
2022-10-18T13:36:34.568Z,1.90
2022-10-18T13:42:11.340Z,1.92
2022-10-18T13:47:17.354Z,1.80
2022-10-18T13:52:30.749Z,1.60
2022-10-18T13:57:48.825Z,2.17
2022-10-18T14:03:43.994Z,1.67
2022-10-18T14:08:47.572Z,1.50
2022-10-18T14:13:57.008Z,1.50
2022-10-18T14:19:13.563Z,1.52
2022-10-18T14:24:22.630Z,1.50
2022-10-18T14:29:26.172Z,1.23
2022-10-18T14:34:29.678Z,1.30
2022-10-18T14:39:35.553Z,1.40
2022-10-18T14:44:38.999Z,1.27
2022-10-18T14:49:45.747Z,1.10
2022-10-18T14:54:50.519Z,1.42
2022-10-18T15:05:08.050Z,1.10
2022-10-18T15:10:18.032Z,1.15
2022-10-18T15:15:29.484Z,1.10
2022-10-18T15:20:35.406Z,1.13
2022-10-18T15:25:40.230Z,1.00
2022-10-18T15:35:47.317Z,1.23
2022-10-18T15:40:52.460Z,0.95
2022-10-18T15:46:00.297Z,1.10
2022-10-18T15:51:09.227Z,1.10
2022-10-18T15:56:29.480Z,1.10
2022-10-18T16:01:39.046Z,0.85
2022-10-18T16:06:43.698Z,1.00
2022-10-18T16:11:55.617Z,0.98
2022-10-18T16:17:02.187Z,0.98
2022-10-18T16:22:06.967Z,0.82
2022-10-18T16:27:12.068Z,0.90
2022-10-18T16:32:15.445Z,1.65
2022-10-18T16:37:18.794Z,1.20
2022-10-18T16:42:23.642Z,1.10
2022-10-18T16:47:27.141Z,1.20
2022-10-18T16:52:30.634Z,1.20
2022-10-18T16:57:35.699Z,1.17
2022-10-18T17:07:44.133Z,1.10
2022-10-18T17:12:49.318Z,1.00
2022-10-18T17:17:52.802Z,0.98
2022-10-18T17:22:56.139Z,0.90
2022-10-18T17:28:01.627Z,1.00
2022-10-18T17:33:08.363Z,0.95
2022-10-18T17:38:12.878Z,0.90
2022-10-18T17:43:17.616Z,0.90
2022-10-18T17:53:28.494Z,1.00
2022-10-18T17:58:33.726Z,1.00
2022-10-18T18:03:37.237Z,1.10
2022-10-18T18:08:40.734Z,1.08
2022-10-18T18:13:45.483Z,0.90
2022-10-18T18:23:54.225Z,1.15
2022-10-18T18:28:59.076Z,1.08
2022-10-18T18:34:02.825Z,1.17
2022-10-18T18:39:06.934Z,1.30
2022-10-18T18:44:11.823Z,1.00
2022-10-18T18:54:18.417Z,1.02
2022-10-18T18:59:23.435Z,1.20
2022-10-18T19:04:27.005Z,1.00
2022-10-18T19:09:31.948Z,1.00
2022-10-18T19:14:36.662Z,1.02
2022-10-18T19:19:41.094Z,1.15
2022-10-18T19:24:44.666Z,1.10
2022-10-18T19:29:49.551Z,1.05
2022-10-18T19:39:56.683Z,1.27
2022-10-18T19:45:02.374Z,1.30
2022-10-18T19:50:07.196Z,1.13
2022-10-18T19:55:11.001Z,1.43
2022-10-18T20:00:19.409Z,1.65
2022-10-18T20:05:23.113Z,1.52
2022-10-18T20:10:26.679Z,1.30
2022-10-18T20:15:31.453Z,1.40
2022-10-18T20:25:39.681Z,1.90
2022-10-18T20:30:44.469Z,1.58
2022-10-18T20:40:55.623Z,1.88
2022-10-18T20:46:01.095Z,1.80
2022-10-18T20:51:05.286Z,1.40
2022-10-18T20:56:10.726Z,1.35
2022-10-18T21:01:19.915Z,1.40
2022-10-18T21:06:25.081Z,1.63
2022-10-18T21:11:30.624Z,1.45
2022-10-18T21:16:37.049Z,1.55
2022-10-18T21:21:41.741Z,1.90
2022-10-18T21:26:45.659Z,1.40
2022-10-18T21:31:50.547Z,1.30
2022-10-18T21:41:57.056Z,1.40
2022-10-18T21:47:01.784Z,1.27
2022-10-18T21:52:06.554Z,1.88
2022-10-18T21:57:09.900Z,1.58
2022-10-18T22:02:14.615Z,1.15
2022-10-18T22:07:18.244Z,1.23
2022-10-18T22:12:21.725Z,1.40
2022-10-18T22:17:26.554Z,1.10
2022-10-18T22:27:33.535Z,1.20
2022-10-18T22:32:38.539Z,1.27
2022-10-18T22:37:41.818Z,1.50
2022-10-18T22:42:45.177Z,1.33
2022-10-18T22:47:49.855Z,1.40
2022-10-18T22:52:54.627Z,1.48
2022-10-18T23:03:02.673Z,6.15
2022-10-18T23:13:10.761Z,3.03
2022-10-18T23:23:18.646Z,2.37
2022-10-18T23:28:22.010Z,2.63
2022-10-18T23:33:26.816Z,3.58
2022-10-18T23:43:33.919Z,3.60
2022-10-18T23:48:38.735Z,2.85
2022-10-18T23:58:46.452Z,2.05
